<?xml version="1.0" encoding="UTF-8" standalone="no" ?>
<gpx xmlns="http://www.topografix.com/GPX/1/1" xmlns:xsi="http://www.w3.org/2001/XMLSchema-instance" xsi:schemaLocation="http://www.topografix.com/GPX/1/1 http://www.topografix.com/GPX/1/1/gpx.xsd" version="1.1" creator="VisuGPX - https://www.visugpx.com">
  <metadata>
    <name>Mont Charvet depuis les Confins</name>
  </metadata>
  <wpt lat="45.92025" lon="6.48028">
    <ele>1415.9</ele>
    <name><![CDATA[Parking du Golf]]></name>
  </wpt>
  <wpt lat="45.92157" lon="6.48867">
    <ele>1458.9</ele>
    <name><![CDATA[La Lanchette - Piste]]></name>
  </wpt>
  <wpt lat="45.93483" lon="6.50404">
    <ele>1545.9</ele>
    <name><![CDATA[La Pierre Marquée]]></name>
  </wpt>
  <wpt lat="45.93892" lon="6.50968">
    <ele>1599.8</ele>
    <name><![CDATA[La Bombardellaz - Croisement de la boucle]]></name>
  </wpt>
  <wpt lat="45.94041" lon="6.52867">
    <ele>2001.5</ele>
    <name><![CDATA[Combe du Mont Charvet]]></name>
  </wpt>
  <wpt lat="45.94067" lon="6.53966">
    <ele>2376.2</ele>
    <name><![CDATA[Arrivée en crête]]></name>
  </wpt>
  <wpt lat="45.94255" lon="6.53879">
    <ele>2498.4</ele>
    <name><![CDATA[Sommet du]]></name>
  </wpt>
  <wpt lat="45.94749" lon="6.52167">
    <ele>1627.3</ele>
    <name><![CDATA[Jonction GRP®]]></name>
  </wpt>
  <wpt lat="45.93911" lon="6.50971">
    <ele>1591.9</ele>
    <name><![CDATA[Les chalets/Oratoire]]></name>
  </wpt>
  <wpt lat="45.92025" lon="6.48025">
    <ele>1415.8</ele>
    <name><![CDATA[Parking du Golf]]></name>
  </wpt>
  <trk>
    <name><![CDATA[Mont Charvet depuis les Confins_2]]></name>
    <desc><![CDATA[chaarvet fin]]></desc>
    <trkseg>
      <trkpt lat="45.94088" lon="6.53937">
        <ele>2391</ele>
        <time>2021-09-07T23:16:59+02:00</time>
      </trkpt>
      <trkpt lat="45.94104" lon="6.53936">
        <ele>2392</ele>
        <time>2021-09-07T23:17:04+02:00</time>
      </trkpt>
      <trkpt lat="45.94118" lon="6.53942">
        <ele>2389</ele>
        <time>2021-09-07T23:17:09+02:00</time>
      </trkpt>
      <trkpt lat="45.94139" lon="6.53947">
        <ele>2379</ele>
        <time>2021-09-07T23:17:14+02:00</time>
      </trkpt>
      <trkpt lat="45.94153" lon="6.53943">
        <ele>2393</ele>
        <time>2021-09-07T23:17:19+02:00</time>
      </trkpt>
      <trkpt lat="45.94202" lon="6.53917">
        <ele>2475</ele>
        <time>2021-09-07T23:17:24+02:00</time>
      </trkpt>
      <trkpt lat="45.94237" lon="6.5392">
        <ele>2496</ele>
        <time>2021-09-07T23:17:29+02:00</time>
      </trkpt>
      <trkpt lat="45.94246" lon="6.53905">
        <ele>2511</ele>
        <time>2021-09-07T23:17:34+02:00</time>
      </trkpt>
      <trkpt lat="45.94255" lon="6.53879">
        <ele>2525</ele>
        <time>2021-09-07T23:17:39+02:00</time>
      </trkpt>
      <trkpt lat="45.94266" lon="6.5391">
        <ele>2501</ele>
        <time>2021-09-07T23:17:44+02:00</time>
      </trkpt>
      <trkpt lat="45.94263" lon="6.53963">
        <ele>2444</ele>
        <time>2021-09-07T23:17:49+02:00</time>
      </trkpt>
      <trkpt lat="45.94274" lon="6.53963">
        <ele>2439</ele>
        <time>2021-09-07T23:17:54+02:00</time>
      </trkpt>
      <trkpt lat="45.94269" lon="6.53983">
        <ele>2421</ele>
        <time>2021-09-07T23:17:59+02:00</time>
      </trkpt>
      <trkpt lat="45.94272" lon="6.54017">
        <ele>2380</ele>
        <time>2021-09-07T23:18:04+02:00</time>
      </trkpt>
      <trkpt lat="45.94284" lon="6.54028">
        <ele>2371</ele>
        <time>2021-09-07T23:18:09+02:00</time>
      </trkpt>
      <trkpt lat="45.94284" lon="6.54045">
        <ele>2353</ele>
        <time>2021-09-07T23:18:14+02:00</time>
      </trkpt>
      <trkpt lat="45.94293" lon="6.54058">
        <ele>2349</ele>
        <time>2021-09-07T23:18:19+02:00</time>
      </trkpt>
      <trkpt lat="45.94301" lon="6.54096">
        <ele>2327</ele>
        <time>2021-09-07T23:18:24+02:00</time>
      </trkpt>
      <trkpt lat="45.94315" lon="6.54096">
        <ele>2325</ele>
        <time>2021-09-07T23:18:29+02:00</time>
      </trkpt>
      <trkpt lat="45.94321" lon="6.54127">
        <ele>2303</ele>
        <time>2021-09-07T23:18:34+02:00</time>
      </trkpt>
      <trkpt lat="45.9432" lon="6.54146">
        <ele>2288</ele>
        <time>2021-09-07T23:18:39+02:00</time>
      </trkpt>
      <trkpt lat="45.94329" lon="6.54167">
        <ele>2267</ele>
        <time>2021-09-07T23:18:44+02:00</time>
      </trkpt>
      <trkpt lat="45.94345" lon="6.54172">
        <ele>2265</ele>
        <time>2021-09-07T23:18:49+02:00</time>
      </trkpt>
      <trkpt lat="45.94356" lon="6.5421">
        <ele>2246</ele>
        <time>2021-09-07T23:18:54+02:00</time>
      </trkpt>
      <trkpt lat="45.94377" lon="6.54197">
        <ele>2258</ele>
        <time>2021-09-07T23:18:59+02:00</time>
      </trkpt>
      <trkpt lat="45.94396" lon="6.5421">
        <ele>2262</ele>
        <time>2021-09-07T23:19:04+02:00</time>
      </trkpt>
      <trkpt lat="45.94405" lon="6.54219">
        <ele>2265</ele>
        <time>2021-09-07T23:19:09+02:00</time>
      </trkpt>
      <trkpt lat="45.94417" lon="6.54214">
        <ele>2277</ele>
        <time>2021-09-07T23:19:14+02:00</time>
      </trkpt>
      <trkpt lat="45.94427" lon="6.54223">
        <ele>2281</ele>
        <time>2021-09-07T23:19:19+02:00</time>
      </trkpt>
      <trkpt lat="45.94442" lon="6.54219">
        <ele>2300</ele>
        <time>2021-09-07T23:19:24+02:00</time>
      </trkpt>
      <trkpt lat="45.9446" lon="6.54223">
        <ele>2324</ele>
        <time>2021-09-07T23:19:29+02:00</time>
      </trkpt>
      <trkpt lat="45.94475" lon="6.54217">
        <ele>2345</ele>
        <time>2021-09-07T23:19:34+02:00</time>
      </trkpt>
      <trkpt lat="45.94493" lon="6.54225">
        <ele>2339</ele>
        <time>2021-09-07T23:19:39+02:00</time>
      </trkpt>
      <trkpt lat="45.94514" lon="6.54227">
        <ele>2327</ele>
        <time>2021-09-07T23:19:44+02:00</time>
      </trkpt>
      <trkpt lat="45.94538" lon="6.54223">
        <ele>2307</ele>
        <time>2021-09-07T23:19:49+02:00</time>
      </trkpt>
      <trkpt lat="45.94554" lon="6.54219">
        <ele>2296</ele>
        <time>2021-09-07T23:19:54+02:00</time>
      </trkpt>
      <trkpt lat="45.94571" lon="6.54214">
        <ele>2283</ele>
        <time>2021-09-07T23:19:59+02:00</time>
      </trkpt>
      <trkpt lat="45.94586" lon="6.54212">
        <ele>2273</ele>
        <time>2021-09-07T23:20:04+02:00</time>
      </trkpt>
      <trkpt lat="45.94605" lon="6.54191">
        <ele>2250</ele>
        <time>2021-09-07T23:20:09+02:00</time>
      </trkpt>
      <trkpt lat="45.94614" lon="6.54191">
        <ele>2245</ele>
        <time>2021-09-07T23:20:14+02:00</time>
      </trkpt>
      <trkpt lat="45.9462" lon="6.54169">
        <ele>2234</ele>
        <time>2021-09-07T23:20:19+02:00</time>
      </trkpt>
      <trkpt lat="45.94636" lon="6.54161">
        <ele>2222</ele>
        <time>2021-09-07T23:20:24+02:00</time>
      </trkpt>
      <trkpt lat="45.94652" lon="6.5411">
        <ele>2194</ele>
        <time>2021-09-07T23:20:29+02:00</time>
      </trkpt>
      <trkpt lat="45.94666" lon="6.54096">
        <ele>2181</ele>
        <time>2021-09-07T23:20:34+02:00</time>
      </trkpt>
      <trkpt lat="45.94681" lon="6.54068">
        <ele>2166</ele>
        <time>2021-09-07T23:20:39+02:00</time>
      </trkpt>
      <trkpt lat="45.94694" lon="6.5405">
        <ele>2158</ele>
        <time>2021-09-07T23:20:44+02:00</time>
      </trkpt>
      <trkpt lat="45.94709" lon="6.5404">
        <ele>2155</ele>
        <time>2021-09-07T23:20:49+02:00</time>
      </trkpt>
      <trkpt lat="45.94715" lon="6.54015">
        <ele>2152</ele>
        <time>2021-09-07T23:20:54+02:00</time>
      </trkpt>
      <trkpt lat="45.94726" lon="6.54005">
        <ele>2150</ele>
        <time>2021-09-07T23:20:59+02:00</time>
      </trkpt>
      <trkpt lat="45.94738" lon="6.53977">
        <ele>2147</ele>
        <time>2021-09-07T23:21:04+02:00</time>
      </trkpt>
      <trkpt lat="45.94752" lon="6.53944">
        <ele>2141</ele>
        <time>2021-09-07T23:21:09+02:00</time>
      </trkpt>
      <trkpt lat="45.94767" lon="6.53917">
        <ele>2138</ele>
        <time>2021-09-07T23:21:14+02:00</time>
      </trkpt>
      <trkpt lat="45.9478" lon="6.53889">
        <ele>2133</ele>
        <time>2021-09-07T23:21:19+02:00</time>
      </trkpt>
      <trkpt lat="45.94791" lon="6.5387">
        <ele>2130</ele>
        <time>2021-09-07T23:21:24+02:00</time>
      </trkpt>
      <trkpt lat="45.94814" lon="6.53797">
        <ele>2115</ele>
        <time>2021-09-07T23:21:29+02:00</time>
      </trkpt>
      <trkpt lat="45.94826" lon="6.53765">
        <ele>2110</ele>
        <time>2021-09-07T23:21:34+02:00</time>
      </trkpt>
      <trkpt lat="45.94833" lon="6.53733">
        <ele>2101</ele>
        <time>2021-09-07T23:21:39+02:00</time>
      </trkpt>
      <trkpt lat="45.94834" lon="6.53722">
        <ele>2098</ele>
        <time>2021-09-07T23:21:44+02:00</time>
      </trkpt>
      <trkpt lat="45.94836" lon="6.53703">
        <ele>2091</ele>
        <time>2021-09-07T23:21:49+02:00</time>
      </trkpt>
      <trkpt lat="45.94846" lon="6.53681">
        <ele>2082</ele>
        <time>2021-09-07T23:21:54+02:00</time>
      </trkpt>
      <trkpt lat="45.94871" lon="6.53667">
        <ele>2075</ele>
        <time>2021-09-07T23:21:59+02:00</time>
      </trkpt>
      <trkpt lat="45.94889" lon="6.53646">
        <ele>2069</ele>
        <time>2021-09-07T23:22:04+02:00</time>
      </trkpt>
      <trkpt lat="45.94896" lon="6.5363">
        <ele>2068</ele>
        <time>2021-09-07T23:22:09+02:00</time>
      </trkpt>
      <trkpt lat="45.94896" lon="6.53619">
        <ele>2066</ele>
        <time>2021-09-07T23:22:14+02:00</time>
      </trkpt>
      <trkpt lat="45.94885" lon="6.53608">
        <ele>2061</ele>
        <time>2021-09-07T23:22:19+02:00</time>
      </trkpt>
      <trkpt lat="45.94876" lon="6.53601">
        <ele>2057</ele>
        <time>2021-09-07T23:22:24+02:00</time>
      </trkpt>
      <trkpt lat="45.94869" lon="6.53588">
        <ele>2053</ele>
        <time>2021-09-07T23:22:29+02:00</time>
      </trkpt>
      <trkpt lat="45.94859" lon="6.53566">
        <ele>2045</ele>
        <time>2021-09-07T23:22:34+02:00</time>
      </trkpt>
      <trkpt lat="45.94839" lon="6.53548">
        <ele>2034</ele>
        <time>2021-09-07T23:22:39+02:00</time>
      </trkpt>
      <trkpt lat="45.94823" lon="6.5352">
        <ele>2022</ele>
        <time>2021-09-07T23:22:44+02:00</time>
      </trkpt>
      <trkpt lat="45.94814" lon="6.53502">
        <ele>2017</ele>
        <time>2021-09-07T23:22:49+02:00</time>
      </trkpt>
      <trkpt lat="45.94811" lon="6.53492">
        <ele>2014</ele>
        <time>2021-09-07T23:22:54+02:00</time>
      </trkpt>
      <trkpt lat="45.94793" lon="6.53455">
        <ele>2005</ele>
        <time>2021-09-07T23:22:59+02:00</time>
      </trkpt>
      <trkpt lat="45.94803" lon="6.53436">
        <ele>2000</ele>
        <time>2021-09-07T23:23:04+02:00</time>
      </trkpt>
      <trkpt lat="45.94811" lon="6.53414">
        <ele>1995</ele>
        <time>2021-09-07T23:23:09+02:00</time>
      </trkpt>
      <trkpt lat="45.94813" lon="6.53398">
        <ele>1990</ele>
        <time>2021-09-07T23:23:14+02:00</time>
      </trkpt>
      <trkpt lat="45.94785" lon="6.53351">
        <ele>1979</ele>
        <time>2021-09-07T23:23:19+02:00</time>
      </trkpt>
      <trkpt lat="45.9478" lon="6.53321">
        <ele>1966</ele>
        <time>2021-09-07T23:23:24+02:00</time>
      </trkpt>
      <trkpt lat="45.94773" lon="6.53299">
        <ele>1959</ele>
        <time>2021-09-07T23:23:29+02:00</time>
      </trkpt>
      <trkpt lat="45.94776" lon="6.53285">
        <ele>1951</ele>
        <time>2021-09-07T23:23:34+02:00</time>
      </trkpt>
      <trkpt lat="45.94764" lon="6.53246">
        <ele>1935</ele>
        <time>2021-09-07T23:23:39+02:00</time>
      </trkpt>
      <trkpt lat="45.9476" lon="6.53237">
        <ele>1933</ele>
        <time>2021-09-07T23:23:44+02:00</time>
      </trkpt>
      <trkpt lat="45.94777" lon="6.53225">
        <ele>1925</ele>
        <time>2021-09-07T23:23:49+02:00</time>
      </trkpt>
      <trkpt lat="45.94779" lon="6.53206">
        <ele>1920</ele>
        <time>2021-09-07T23:23:54+02:00</time>
      </trkpt>
      <trkpt lat="45.94796" lon="6.532">
        <ele>1917</ele>
        <time>2021-09-07T23:23:59+02:00</time>
      </trkpt>
      <trkpt lat="45.94798" lon="6.53183">
        <ele>1912</ele>
        <time>2021-09-07T23:24:04+02:00</time>
      </trkpt>
      <trkpt lat="45.94785" lon="6.53161">
        <ele>1906</ele>
        <time>2021-09-07T23:24:09+02:00</time>
      </trkpt>
      <trkpt lat="45.9478" lon="6.53141">
        <ele>1898</ele>
        <time>2021-09-07T23:24:14+02:00</time>
      </trkpt>
      <trkpt lat="45.94767" lon="6.53127">
        <ele>1895</ele>
        <time>2021-09-07T23:24:19+02:00</time>
      </trkpt>
      <trkpt lat="45.94752" lon="6.53102">
        <ele>1888</ele>
        <time>2021-09-07T23:24:24+02:00</time>
      </trkpt>
      <trkpt lat="45.94747" lon="6.53089">
        <ele>1883</ele>
        <time>2021-09-07T23:24:29+02:00</time>
      </trkpt>
      <trkpt lat="45.94747" lon="6.53073">
        <ele>1877</ele>
        <time>2021-09-07T23:24:34+02:00</time>
      </trkpt>
      <trkpt lat="45.94761" lon="6.53058">
        <ele>1869</ele>
        <time>2021-09-07T23:24:39+02:00</time>
      </trkpt>
      <trkpt lat="45.94751" lon="6.53051">
        <ele>1868</ele>
        <time>2021-09-07T23:24:44+02:00</time>
      </trkpt>
      <trkpt lat="45.94738" lon="6.5305">
        <ele>1870</ele>
        <time>2021-09-07T23:24:49+02:00</time>
      </trkpt>
      <trkpt lat="45.94736" lon="6.53032">
        <ele>1864</ele>
        <time>2021-09-07T23:24:54+02:00</time>
      </trkpt>
      <trkpt lat="45.94738" lon="6.53004">
        <ele>1856</ele>
        <time>2021-09-07T23:24:59+02:00</time>
      </trkpt>
      <trkpt lat="45.94741" lon="6.52967">
        <ele>1845</ele>
        <time>2021-09-07T23:25:04+02:00</time>
      </trkpt>
      <trkpt lat="45.94732" lon="6.52929">
        <ele>1832</ele>
        <time>2021-09-07T23:25:09+02:00</time>
      </trkpt>
      <trkpt lat="45.94714" lon="6.52917">
        <ele>1829</ele>
        <time>2021-09-07T23:25:14+02:00</time>
      </trkpt>
      <trkpt lat="45.94708" lon="6.52905">
        <ele>1826</ele>
        <time>2021-09-07T23:25:19+02:00</time>
      </trkpt>
      <trkpt lat="45.94711" lon="6.52861">
        <ele>1815</ele>
        <time>2021-09-07T23:25:24+02:00</time>
      </trkpt>
      <trkpt lat="45.94709" lon="6.5284">
        <ele>1812</ele>
        <time>2021-09-07T23:25:29+02:00</time>
      </trkpt>
      <trkpt lat="45.94723" lon="6.5283">
        <ele>1807</ele>
        <time>2021-09-07T23:25:34+02:00</time>
      </trkpt>
      <trkpt lat="45.94719" lon="6.52802">
        <ele>1802</ele>
        <time>2021-09-07T23:25:39+02:00</time>
      </trkpt>
      <trkpt lat="45.94717" lon="6.52777">
        <ele>1797</ele>
        <time>2021-09-07T23:25:44+02:00</time>
      </trkpt>
      <trkpt lat="45.94698" lon="6.52734">
        <ele>1790</ele>
        <time>2021-09-07T23:25:49+02:00</time>
      </trkpt>
      <trkpt lat="45.94686" lon="6.52708">
        <ele>1786</ele>
        <time>2021-09-07T23:25:54+02:00</time>
      </trkpt>
      <trkpt lat="45.94682" lon="6.52659">
        <ele>1775</ele>
        <time>2021-09-07T23:25:59+02:00</time>
      </trkpt>
      <trkpt lat="45.94675" lon="6.52642">
        <ele>1773</ele>
        <time>2021-09-07T23:26:04+02:00</time>
      </trkpt>
      <trkpt lat="45.94689" lon="6.52623">
        <ele>1765</ele>
        <time>2021-09-07T23:26:09+02:00</time>
      </trkpt>
      <trkpt lat="45.94689" lon="6.52609">
        <ele>1760</ele>
        <time>2021-09-07T23:26:14+02:00</time>
      </trkpt>
      <trkpt lat="45.94683" lon="6.52594">
        <ele>1756</ele>
        <time>2021-09-07T23:26:19+02:00</time>
      </trkpt>
      <trkpt lat="45.94679" lon="6.52569">
        <ele>1747</ele>
        <time>2021-09-07T23:26:24+02:00</time>
      </trkpt>
      <trkpt lat="45.94684" lon="6.52509">
        <ele>1727</ele>
        <time>2021-09-07T23:26:29+02:00</time>
      </trkpt>
      <trkpt lat="45.94707" lon="6.52485">
        <ele>1715</ele>
        <time>2021-09-07T23:26:34+02:00</time>
      </trkpt>
      <trkpt lat="45.94713" lon="6.52464">
        <ele>1706</ele>
        <time>2021-09-07T23:26:39+02:00</time>
      </trkpt>
      <trkpt lat="45.94732" lon="6.52406">
        <ele>1682</ele>
        <time>2021-09-07T23:26:44+02:00</time>
      </trkpt>
      <trkpt lat="45.94757" lon="6.524">
        <ele>1674</ele>
        <time>2021-09-07T23:26:49+02:00</time>
      </trkpt>
      <trkpt lat="45.94769" lon="6.52365">
        <ele>1666</ele>
        <time>2021-09-07T23:26:54+02:00</time>
      </trkpt>
      <trkpt lat="45.94761" lon="6.52334">
        <ele>1661</ele>
        <time>2021-09-07T23:26:59+02:00</time>
      </trkpt>
      <trkpt lat="45.94751" lon="6.52313">
        <ele>1657</ele>
        <time>2021-09-07T23:27:04+02:00</time>
      </trkpt>
      <trkpt lat="45.94759" lon="6.52274">
        <ele>1649</ele>
        <time>2021-09-07T23:27:09+02:00</time>
      </trkpt>
      <trkpt lat="45.9477" lon="6.52254">
        <ele>1643</ele>
        <time>2021-09-07T23:27:14+02:00</time>
      </trkpt>
      <trkpt lat="45.94786" lon="6.5224">
        <ele>1636</ele>
        <time>2021-09-07T23:27:19+02:00</time>
      </trkpt>
      <trkpt lat="45.94771" lon="6.5222">
        <ele>1632</ele>
        <time>2021-09-07T23:27:24+02:00</time>
      </trkpt>
      <trkpt lat="45.94766" lon="6.52201">
        <ele>1626</ele>
        <time>2021-09-07T23:27:29+02:00</time>
      </trkpt>
      <trkpt lat="45.94757" lon="6.52191">
        <ele>1623</ele>
        <time>2021-09-07T23:27:34+02:00</time>
      </trkpt>
      <trkpt lat="45.94749" lon="6.52167">
        <ele>1618</ele>
        <time>2021-09-07T23:27:39+02:00</time>
      </trkpt>
      <trkpt lat="45.94748" lon="6.52158">
        <ele>1615</ele>
        <time>2021-09-07T23:27:44+02:00</time>
      </trkpt>
    </trkseg>
  </trk>
</gpx>